Observation data for Reese Center on 01/12/2018      Previous  Date  Next       Current Mesonet Observations  Soil Data  Daily Summary Page  Observations in Plain Language
KREE 120600Z 00000KT M04/M12 A3028 RMK A01 T10391122  RH  053%=      5-min Rain = 0
KREE 120605Z 24001KT M04/M13 A3028 RMK A01 T10431127  RH  053%=      5-min Rain = 0
KREE 120610Z 23001KT M05/M13 A3027 RMK A01 T10481125  RH  055%=      5-min Rain = 0
KREE 120615Z 23001KT M05/M13 A3027 RMK A01 T10501127  RH  056%=      5-min Rain = 0
KREE 120620Z 23001KT M05/M13 A3027 RMK A01 T10501127  RH  056%=      5-min Rain = 0
KREE 120625Z 00000KT M05/M13 A3027 RMK A01 T10511129  RH  055%=      5-min Rain = 0
KREE 120630Z 35000KT M05/M13 A3027 RMK A01 T10511128  RH  056%=      5-min Rain = 0
KREE 120635Z 35000KT M05/M13 A3027 RMK A01 T10511126  RH  056%=      5-min Rain = 0
KREE 120640Z 27000KT M05/M13 A3026 RMK A01 T10511127  RH  056%=      5-min Rain = 0
KREE 120645Z 26000KT M05/M13 A3026 RMK A01 T10521126  RH  057%=      5-min Rain = 0
KREE 120650Z 22000KT M05/M13 A3026 RMK A01 T10531127  RH  057%=      5-min Rain = 0
KREE 120655Z 19001KT M05/M13 A3025 RMK A01 T10531130  RH  056%=      5-min Rain = 0
KREE 120700Z 19002KT M05/M13 A3025 RMK A01 T10541130  RH  056%=      5-min Rain = 0
KREE 120705Z 17001KT M06/M13 A3025 RMK A01 T10551129  RH  057%=      5-min Rain = 0
KREE 120710Z 20002KT M06/M13 A3025 RMK A01 T10551129  RH  057%=      5-min Rain = 0
KREE 120715Z 18002KT M06/M13 A3025 RMK A01 T10561127  RH  059%=      5-min Rain = 0
KREE 120720Z 22003KT M06/M13 A3025 RMK A01 T10581128  RH  058%=      5-min Rain = 0
KREE 120725Z 19002KT M06/M13 A3025 RMK A01 T10611127  RH  060%=      5-min Rain = 0
KREE 120730Z 25003KT M06/M13 A3025 RMK A01 T10621133  RH  058%=      5-min Rain = 0
KREE 120735Z 22002KT M07/M13 A3025 RMK A01 T10651133  RH  059%=      5-min Rain = 0
KREE 120740Z 24003KT M07/M13 A3025 RMK A01 T10651134  RH  059%=      5-min Rain = 0
KREE 120745Z 24004KT M07/M14 A3025 RMK A01 T10671135  RH  059%=      5-min Rain = 0
KREE 120750Z 25004KT M07/M14 A3025 RMK A01 T10701135  RH  060%=      5-min Rain = 0
KREE 120755Z 24004KT M07/M13 A3025 RMK A01 T10701134  RH  061%=      5-min Rain = 0
KREE 120800Z 25005KT M07/M13 A3025 RMK A01 T10671129  RH  062%=      5-min Rain = 0
KREE 120805Z 25004KT M07/M13 A3026 RMK A01 T10651129  RH  061%=      5-min Rain = 0
KREE 120810Z 24004KT M06/M13 A3026 RMK A01 T10641131  RH  060%=      5-min Rain = 0
KREE 120815Z 24004KT M06/M13 A3025 RMK A01 T10641132  RH  060%=      5-min Rain = 0
KREE 120820Z 23004KT M07/M13 A3025 RMK A01 T10661134  RH  059%=      5-min Rain = 0
KREE 120825Z 23005KT M07/M13 A3025 RMK A01 T10661129  RH  062%=      5-min Rain = 0
KREE 120830Z 23005KT M07/M13 A3025 RMK A01 T10651126  RH  063%=      5-min Rain = 0
KREE 120835Z 23005KT M06/M13 A3025 RMK A01 T10631125  RH  062%=      5-min Rain = 0
KREE 120840Z 23005KT M06/M13 A3025 RMK A01 T10641128  RH  061%=      5-min Rain = 0
KREE 120845Z 23005KT M07/M13 A3025 RMK A01 T10671129  RH  062%=      5-min Rain = 0
KREE 120850Z 24005KT M07/M13 A3025 RMK A01 T10681129  RH  063%=      5-min Rain = 0
KREE 120855Z 24006KT M07/M13 A3025 RMK A01 T10691129  RH  064%=      5-min Rain = 0
KREE 120900Z 24005KT M07/M13 A3025 RMK A01 T10681127  RH  064%=      5-min Rain = 0
KREE 120905Z 23006KT M07/M13 A3025 RMK A01 T10661126  RH  063%=      5-min Rain = 0
KREE 120910Z 22005KT M06/M12 A3024 RMK A01 T10631124  RH  063%=      5-min Rain = 0
KREE 120915Z 23004KT M06/M13 A3024 RMK A01 T10621125  RH  062%=      5-min Rain = 0
KREE 120920Z 22004KT M06/M13 A3024 RMK A01 T10611125  RH  062%=      5-min Rain = 0
KREE 120925Z 21004KT M06/M13 A3024 RMK A01 T10601126  RH  061%=      5-min Rain = 0
KREE 120930Z 20003KT M06/M13 A3023 RMK A01 T10611127  RH  060%=      5-min Rain = 0
KREE 120935Z 19003KT M07/M13 A3023 RMK A01 T10661131  RH  061%=      5-min Rain = 0
KREE 120940Z 19003KT M06/M13 A3023 RMK A01 T10641125  RH  063%=      5-min Rain = 0
KREE 120945Z 19003KT M06/M13 A3022 RMK A01 T10601126  RH  061%=      5-min Rain = 0
KREE 120950Z 19004KT M06/M13 A3022 RMK A01 T10591126  RH  060%=      5-min Rain = 0
KREE 120955Z 20005KT M06/M13 A3022 RMK A01 T10581126  RH  060%=      5-min Rain = 0
KREE 121000Z 20006KT M06/M12 A3021 RMK A01 T10581124  RH  060%=      5-min Rain = 0
KREE 121005Z 21006KT M06/M13 A3022 RMK A01 T10601125  RH  061%=      5-min Rain = 0
KREE 121010Z 21006KT M06/M13 A3022 RMK A01 T10641126  RH  062%=      5-min Rain = 0
KREE 121015Z 21007KT M07/M13 A3022 RMK A01 T10691126  RH  065%=      5-min Rain = 0
KREE 121020Z 21007KT M07/M12 A3022 RMK A01 T10681123  RH  066%=      5-min Rain = 0
KREE 121025Z 21007KT M07/M12 A3022 RMK A01 T10681124  RH  065%=      5-min Rain = 0
KREE 121030Z 21006KT M07/M12 A3022 RMK A01 T10681123  RH  066%=      5-min Rain = 0
KREE 121035Z 22006KT M07/M12 A3022 RMK A01 T10681123  RH  066%=      5-min Rain = 0
KREE 121040Z 22005KT M07/M12 A3022 RMK A01 T10691124  RH  066%=      5-min Rain = 0
KREE 121045Z 23005KT M07/M12 A3022 RMK A01 T10701124  RH  066%=      5-min Rain = 0
KREE 121050Z 22004KT M07/M12 A3022 RMK A01 T10671122  RH  066%=      5-min Rain = 0
KREE 121055Z 22003KT M07/M12 A3022 RMK A01 T10661123  RH  065%=      5-min Rain = 0
KREE 121100Z 23005KT M07/M12 A3022 RMK A01 T10661122  RH  065%=      5-min Rain = 0
KREE 121105Z 24005KT M07/M12 A3022 RMK A01 T10671124  RH  065%=      5-min Rain = 0
KREE 121110Z 25004KT M07/M13 A3022 RMK A01 T10701126  RH  065%=      5-min Rain = 0
KREE 121115Z 24005KT M07/M13 A3022 RMK A01 T10711125  RH  066%=      5-min Rain = 0
KREE 121120Z 24005KT M07/M13 A3022 RMK A01 T10711125  RH  066%=      5-min Rain = 0
KREE 121125Z 25004KT M07/M13 A3022 RMK A01 T10721126  RH  067%=      5-min Rain = 0
KREE 121130Z 25004KT M07/M13 A3022 RMK A01 T10731126  RH  067%=      5-min Rain = 0
KREE 121135Z 24004KT M07/M13 A3022 RMK A01 T10721127  RH  066%=      5-min Rain = 0
KREE 121140Z 24004KT M07/M13 A3022 RMK A01 T10711125  RH  066%=      5-min Rain = 0
KREE 121145Z 23004KT M07/M12 A3022 RMK A01 T10681124  RH  065%=      5-min Rain = 0
KREE 121150Z 22004KT M07/M12 A3021 RMK A01 T10671124  RH  065%=      5-min Rain = 0
KREE 121155Z 22005KT M07/M13 A3022 RMK A01 T10671126  RH  064%=      5-min Rain = 0
KREE 121200Z 21005KT M07/M13 A3022 RMK A01 T10711128  RH  064%=      5-min Rain = 0
KREE 121205Z 18005KT M08/M13 A3021 RMK A01 T10751129  RH  066%=      5-min Rain = 0
KREE 121210Z 17005KT M08/M13 A3021 RMK A01 T10761129  RH  067%=      5-min Rain = 0
KREE 121215Z 17006KT M08/M13 A3021 RMK A01 T10761131  RH  066%=      5-min Rain = 0
KREE 121220Z 16006KT M08/M13 A3021 RMK A01 T10781132  RH  066%=      5-min Rain = 0
KREE 121225Z 17006KT M08/M13 A3021 RMK A01 T10781130  RH  067%=      5-min Rain = 0
KREE 121230Z 17006KT M08/M13 A3022 RMK A01 T10781129  RH  068%=      5-min Rain = 0
KREE 121235Z 17006KT M08/M13 A3022 RMK A01 T10781130  RH  068%=      5-min Rain = 0
KREE 121240Z 18006KT M08/M13 A3022 RMK A01 T10781130  RH  067%=      5-min Rain = 0
KREE 121245Z 18007KT M08/M13 A3022 RMK A01 T10761129  RH  066%=      5-min Rain = 0
KREE 121250Z 18006KT M07/M13 A3022 RMK A01 T10721129  RH  065%=      5-min Rain = 0
KREE 121255Z 19006KT M07/M13 A3022 RMK A01 T10721130  RH  064%=      5-min Rain = 0
KREE 121300Z 18006KT M07/M13 A3023 RMK A01 T10731129  RH  065%=      5-min Rain = 0
KREE 121305Z 18006KT M07/M13 A3023 RMK A01 T10721127  RH  065%=      5-min Rain = 0
KREE 121310Z 17006KT M07/M13 A3023 RMK A01 T10721128  RH  065%=      5-min Rain = 0
KREE 121315Z 17006KT M07/M13 A3023 RMK A01 T10731130  RH  065%=      5-min Rain = 0
KREE 121320Z 16006KT M07/M13 A3023 RMK A01 T10741131  RH  064%=      5-min Rain = 0
KREE 121325Z 16006KT M08/M13 A3023 RMK A01 T10751130  RH  065%=      5-min Rain = 0
KREE 121330Z 17007KT M07/M13 A3023 RMK A01 T10721128  RH  065%=      5-min Rain = 0
KREE 121335Z 17008KT M07/M13 A3023 RMK A01 T10711127  RH  065%=      5-min Rain = 0
KREE 121340Z 17008KT M07/M13 A3023 RMK A01 T10721125  RH  067%=      5-min Rain = 0
KREE 121345Z 18009KT M07/M12 A3023 RMK A01 T10701121  RH  068%=      5-min Rain = 0
KREE 121350Z 18009KT M06/M12 A3023 RMK A01 T10621117  RH  066%=      5-min Rain = 0
KREE 121355Z 18008KT M06/M12 A3023 RMK A01 T10621117  RH  066%=      5-min Rain = 0
KREE 121400Z 18009KT M06/M11 A3023 RMK A01 T10591114  RH  066%=      5-min Rain = 0
KREE 121405Z 18009KT M06/M11 A3023 RMK A01 T10561111  RH  066%=      5-min Rain = 0
KREE 121410Z 18010KT M05/M11 A3023 RMK A01 T10521107  RH  066%=      5-min Rain = 0
KREE 121415Z 17009KT M05/M11 A3023 RMK A01 T10461105  RH  064%=      5-min Rain = 0
KREE 121420Z 17009KT M04/M11 A3023 RMK A01 T10431106  RH  062%=      5-min Rain = 0
KREE 121425Z 17009KT M04/M11 A3022 RMK A01 T10401107  RH  060%=      5-min Rain = 0
KREE 121430Z 18009KT M04/M11 A3023 RMK A01 T10361106  RH  059%=      5-min Rain = 0
KREE 121435Z 19009KT M03/M10 A3023 RMK A01 T10331104  RH  059%=      5-min Rain = 0
KREE 121440Z 18009KT M03/M10 A3023 RMK A01 T10301104  RH  058%=      5-min Rain = 0
KREE 121445Z 18009KT M03/M10 A3023 RMK A01 T10291104  RH  057%=      5-min Rain = 0
KREE 121450Z 18009KT M03/M10 A3023 RMK A01 T10271103  RH  056%=      5-min Rain = 0
KREE 121455Z 18009KT M02/M10 A3023 RMK A01 T10241103  RH  055%=      5-min Rain = 0
KREE 121500Z 18009KT M02/M10 A3023 RMK A01 T10211103  RH  054%=      5-min Rain = 0
KREE 121505Z 17010KT M02/M10 A3023 RMK A01 T10191103  RH  053%=      5-min Rain = 0
KREE 121510Z 18011KT M02/M10 A3024 RMK A01 T10161103  RH  052%=      5-min Rain = 0
KREE 121515Z 18010KT M01/M10 A3024 RMK A01 T10141103  RH  051%=      5-min Rain = 0
KREE 121520Z 17011KT M01/M10 A3024 RMK A01 T10111102  RH  050%=      5-min Rain = 0
KREE 121525Z 18010KT M01/M10 A3024 RMK A01 T10091102  RH  050%=      5-min Rain = 0
KREE 121530Z 19010KT M01/M10 A3025 RMK A01 T10081102  RH  050%=      5-min Rain = 0
KREE 121535Z 18010KT M01/M10 A3025 RMK A01 T10071102  RH  049%=      5-min Rain = 0
KREE 121540Z 18010KT M01/M10 A3025 RMK A01 T10051101  RH  049%=      5-min Rain = 0
KREE 121545Z 18009KT M00/M10 A3025 RMK A01 T10011100  RH  048%=      5-min Rain = 0
KREE 121550Z 18009KT 00/10 A3025 RMK A01 T00000-100  RH  047%=      5-min Rain = 0
KREE 121555Z 17010KT 00/M10 A3025 RMK A01 T00041100  RH  046%=      5-min Rain = 0
KREE 121600Z 18011KT 01/M10 A3025 RMK A01 T00061100  RH  046%=      5-min Rain = 0
KREE 121605Z 18010KT 01/M10 A3024 RMK A01 T00081099  RH  045%=      5-min Rain = 0
KREE 121610Z 18010KT 01/M10 A3024 RMK A01 T00131099  RH  044%=      5-min Rain = 0
KREE 121615Z 18011KT 01/M10 A3025 RMK A01 T00141099  RH  043%=      5-min Rain = 0
KREE 121620Z 18014KT 02/M10 A3024 RMK A01 T00151100  RH  043%=      5-min Rain = 0
KREE 121625Z 17012KT 02/M10 A3024 RMK A01 T00181099  RH  042%=      5-min Rain = 0
KREE 121630Z 19013KT 02/M10 A3024 RMK A01 T00231098  RH  041%=      5-min Rain = 0
KREE 121635Z 19014KT 02/M10 A3024 RMK A01 T00221099  RH  041%=      5-min Rain = 0
KREE 121640Z 18015KT 02/M10 A3024 RMK A01 T00241101  RH  040%=      5-min Rain = 0
KREE 121645Z 18014KT 03/M10 A3023 RMK A01 T00271100  RH  039%=      5-min Rain = 0
KREE 121650Z 18015KT 03/M11 A3023 RMK A01 T00291105  RH  037%=      5-min Rain = 0
KREE 121655Z 18015KT 03/M11 A3023 RMK A01 T00291107  RH  037%=      5-min Rain = 0
KREE 121700Z 19014KT 03/M11 A3023 RMK A01 T00291107  RH  036%=      5-min Rain = 0
KREE 121705Z 18013KT 03/M11 A3022 RMK A01 T00321108  RH  036%=      5-min Rain = 0
KREE 121710Z 18015KT 04/M11 A3022 RMK A01 T00351111  RH  034%=      5-min Rain = 0
KREE 121715Z 18016KT 04/M12 A3022 RMK A01 T00371115  RH  032%=      5-min Rain = 0
KREE 121720Z 18015KT 04/M12 A3021 RMK A01 T00391115  RH  032%=      5-min Rain = 0
KREE 121725Z 18016KT 04/M12 A3021 RMK A01 T00421117  RH  031%=      5-min Rain = 0
KREE 121730Z 18016KT 05/M12 A3021 RMK A01 T00461119  RH  029%=      5-min Rain = 0
KREE 121735Z 18016G21KT 05/M12 A302 RMK A01 T00471120  RH  029%=      5-min Rain = 0
KREE 121740Z 18017KT 05/M12 A302 RMK A01 T00501120  RH  028%=      5-min Rain = 0
KREE 121745Z 19019G24KT 05/M12 A3019 RMK A01 T00521122  RH  028%=      5-min Rain = 0
KREE 121750Z 18017G23KT 05/M12 A3019 RMK A01 T00541121  RH  027%=      5-min Rain = 0
KREE 121755Z 19018KT 05/M12 A3019 RMK A01 T00521122  RH  028%=      5-min Rain = 0
KREE 121800Z 18017KT 05/M12 A3018 RMK A01 T00541120  RH  028%=      5-min Rain = 0
KREE 121805Z 18016KT 06/M12 A3018 RMK A01 T00591122  RH  026%=      5-min Rain = 0
KREE 121810Z 17016KT 06/M12 A3019 RMK A01 T00601122  RH  026%=      5-min Rain = 0
KREE 121815Z 18015G20KT 06/M12 A3018 RMK A01 T00611124  RH  025%=      5-min Rain = 0
KREE 121820Z 19017G22KT 06/M12 A3018 RMK A01 T00621123  RH  026%=      5-min Rain = 0
KREE 121825Z 18015KT 06/M12 A3018 RMK A01 T00631123  RH  025%=      5-min Rain = 0
KREE 121830Z 17014G20KT 06/M12 A3018 RMK A01 T00641123  RH  025%=      5-min Rain = 0
KREE 121835Z 18015G20KT 07/M12 A3017 RMK A01 T00671121  RH  025%=      5-min Rain = 0
KREE 121840Z 17015G20KT 07/M12 A3016 RMK A01 T00681121  RH  025%=      5-min Rain = 0
KREE 121845Z 17014G19KT 07/M12 A3016 RMK A01 T00691121  RH  025%=      5-min Rain = 0
KREE 121850Z 18016G21KT 07/M12 A3015 RMK A01 T00681121  RH  025%=      5-min Rain = 0
KREE 121855Z 18014KT 07/M12 A3015 RMK A01 T00701121  RH  025%=      5-min Rain = 0
KREE 121900Z 18016KT 07/M12 A3015 RMK A01 T00731121  RH  024%=      5-min Rain = 0
KREE 121905Z 18015G20KT 07/M12 A3015 RMK A01 T00711121  RH  024%=      5-min Rain = 0
KREE 121910Z 18015G20KT 08/M12 A3014 RMK A01 T00761120  RH  024%=      5-min Rain = 0
KREE 121915Z 18016G22KT 08/M12 A3014 RMK A01 T00761121  RH  024%=      5-min Rain = 0
KREE 121920Z 18015G21KT 07/M12 A3014 RMK A01 T00741121  RH  024%=      5-min Rain = 0
KREE 121925Z 18017G23KT 07/M12 A3013 RMK A01 T00731119  RH  024%=      5-min Rain = 0
KREE 121930Z 18015KT 07/M12 A3013 RMK A01 T00731118  RH  025%=      5-min Rain = 0
KREE 121935Z 18014G19KT 08/M12 A3013 RMK A01 T00751116  RH  025%=      5-min Rain = 0
KREE 121940Z 18013G18KT 08/M12 A3013 RMK A01 T00771115  RH  024%=      5-min Rain = 0
KREE 121945Z 19014KT 08/M11 A3013 RMK A01 T00791114  RH  024%=      5-min Rain = 0
KREE 121950Z 18014G19KT 08/M11 A3013 RMK A01 T00781114  RH  025%=      5-min Rain = 0
KREE 121955Z 18013G18KT 08/M11 A3012 RMK A01 T00791113  RH  025%=      5-min Rain = 0
KREE 122000Z 18013G18KT 08/M11 A3012 RMK A01 T00811113  RH  024%=      5-min Rain = 0
KREE 122005Z 18014KT 09/M11 A3012 RMK A01 T00851113  RH  024%=      5-min Rain = 0
KREE 122010Z 19014G20KT 09/M11 A3012 RMK A01 T00871112  RH  024%=      5-min Rain = 0
KREE 122015Z 19013G19KT 09/M11 A3012 RMK A01 T00861112  RH  024%=      5-min Rain = 0
KREE 122020Z 19013G19KT 09/M11 A3011 RMK A01 T00881109  RH  024%=      5-min Rain = 0
KREE 122025Z 18013G19KT 09/M11 A3012 RMK A01 T00901111  RH  023%=      5-min Rain = 0
KREE 122030Z 19013G18KT 09/M11 A3011 RMK A01 T00901109  RH  024%=      5-min Rain = 0
KREE 122035Z 18013G19KT 09/M11 A3011 RMK A01 T00891108  RH  024%=      5-min Rain = 0
KREE 122040Z 19013KT 09/M11 A3011 RMK A01 T00881110  RH  024%=      5-min Rain = 0
KREE 122045Z 18013KT 09/M11 A3011 RMK A01 T00911109  RH  023%=      5-min Rain = 0
KREE 122050Z 19011G16KT 09/M11 A3011 RMK A01 T00941108  RH  023%=      5-min Rain = 0
KREE 122055Z 18011KT 09/M11 A3011 RMK A01 T00931108  RH  023%=      5-min Rain = 0
KREE 122100Z 17014G19KT 09/M11 A3011 RMK A01 T00931107  RH  023%=      5-min Rain = 0
KREE 122105Z 18013G18KT 10/M11 A301 RMK A01 T00961106  RH  023%=      5-min Rain = 0
KREE 122110Z 18013KT 10/M11 A301 RMK A01 T00961106  RH  023%=      5-min Rain = 0
KREE 122115Z 18014KT 10/M11 A301 RMK A01 T00951106  RH  023%=      5-min Rain = 0
KREE 122120Z 19012KT 10/M11 A301 RMK A01 T00961105  RH  023%=      5-min Rain = 0
KREE 122125Z 17012KT 10/M11 A301 RMK A01 T00971106  RH  023%=      5-min Rain = 0
KREE 122130Z 17014KT 10/M11 A301 RMK A01 T00971106  RH  023%=      5-min Rain = 0
KREE 122135Z 17012G17KT 10/M11 A301 RMK A01 T00971106  RH  023%=      5-min Rain = 0
KREE 122140Z 17014KT 10/M11 A301 RMK A01 T01001106  RH  022%=      5-min Rain = 0
KREE 122145Z 17011KT 10/M11 A301 RMK A01 T01001106  RH  023%=      5-min Rain = 0
KREE 122150Z 17013KT 10/M11 A301 RMK A01 T01001107  RH  022%=      5-min Rain = 0
KREE 122155Z 17014KT 10/M11 A301 RMK A01 T00991106  RH  023%=      5-min Rain = 0
KREE 122200Z 16014KT 10/M11 A301 RMK A01 T00991106  RH  023%=      5-min Rain = 0
KREE 122205Z 16015KT 10/M11 A301 RMK A01 T01001106  RH  023%=      5-min Rain = 0
KREE 122210Z 16012KT 10/M11 A301 RMK A01 T01001106  RH  023%=      5-min Rain = 0
KREE 122215Z 16014KT 10/M11 A301 RMK A01 T01011105  RH  023%=      5-min Rain = 0
KREE 122220Z 17013KT 10/M11 A301 RMK A01 T01001105  RH  023%=      5-min Rain = 0
KREE 122225Z 16015G20KT 10/M11 A301 RMK A01 T00991106  RH  023%=      5-min Rain = 0
KREE 122230Z 16015KT 10/M11 A301 RMK A01 T01001106  RH  023%=      5-min Rain = 0
KREE 122235Z 16015KT 10/M11 A301 RMK A01 T01001106  RH  023%=      5-min Rain = 0
KREE 122240Z 16015KT 10/M11 A301 RMK A01 T00991106  RH  023%=      5-min Rain = 0
KREE 122245Z 15013KT 10/M11 A301 RMK A01 T00991106  RH  023%=      5-min Rain = 0
KREE 122250Z 16014KT 10/M11 A301 RMK A01 T00991106  RH  023%=      5-min Rain = 0
KREE 122255Z 16013KT 10/M11 A301 RMK A01 T00981106  RH  023%=      5-min Rain = 0
KREE 122300Z 16013KT 10/M11 A3011 RMK A01 T00971106  RH  023%=      5-min Rain = 0
KREE 122305Z 16013KT 10/M11 A3011 RMK A01 T00971106  RH  023%=      5-min Rain = 0
KREE 122310Z 15012KT 10/M11 A3011 RMK A01 T00961106  RH  023%=      5-min Rain = 0
KREE 122315Z 15012KT 09/M11 A3011 RMK A01 T00941106  RH  023%=      5-min Rain = 0
KREE 122320Z 15012KT 09/M11 A3011 RMK A01 T00931106  RH  024%=      5-min Rain = 0
KREE 122325Z 15011KT 09/M11 A3011 RMK A01 T00921106  RH  024%=      5-min Rain = 0
KREE 122330Z 15012KT 09/M11 A3011 RMK A01 T00901106  RH  024%=      5-min Rain = 0
KREE 122335Z 15011KT 09/M11 A3012 RMK A01 T00861106  RH  025%=      5-min Rain = 0
KREE 122340Z 15010KT 08/M11 A3012 RMK A01 T00821106  RH  025%=      5-min Rain = 0
KREE 122345Z 15009KT 08/M11 A3012 RMK A01 T00771106  RH  026%=      5-min Rain = 0
KREE 122350Z 15009KT 08/M11 A3012 RMK A01 T00751106  RH  027%=      5-min Rain = 0
KREE 122355Z 14009KT 07/M11 A3013 RMK A01 T00731106  RH  027%=      5-min Rain = 0
KREE 130000Z 14009KT 07/M11 A3013 RMK A01 T00711107  RH  027%=      5-min Rain = 0
KREE 130005Z 14010KT 07/M11 A3013 RMK A01 T00691107  RH  028%=      5-min Rain = 0
KREE 130010Z 14010KT 07/M11 A3013 RMK A01 T00661107  RH  028%=      5-min Rain = 0
KREE 130015Z 13009KT 06/M11 A3013 RMK A01 T00641107  RH  029%=      5-min Rain = 0
KREE 130020Z 13010KT 06/M11 A3013 RMK A01 T00641108  RH  029%=      5-min Rain = 0
KREE 130025Z 13010KT 06/M11 A3013 RMK A01 T00611110  RH  028%=      5-min Rain = 0
KREE 130030Z 14010KT 06/M11 A3014 RMK A01 T00611112  RH  028%=      5-min Rain = 0
KREE 130035Z 14010KT 06/M11 A3014 RMK A01 T00601112  RH  028%=      5-min Rain = 0
KREE 130040Z 14010KT 06/M11 A3014 RMK A01 T00601112  RH  028%=      5-min Rain = 0
KREE 130045Z 14010KT 06/M11 A3014 RMK A01 T00581112  RH  029%=      5-min Rain = 0
KREE 130050Z 14011KT 06/M11 A3014 RMK A01 T00571112  RH  029%=      5-min Rain = 0
KREE 130055Z 14010KT 06/M11 A3014 RMK A01 T00551111  RH  029%=      5-min Rain = 0
KREE 130100Z 13010KT 05/M11 A3015 RMK A01 T00541111  RH  030%=      5-min Rain = 0
KREE 130105Z 12010KT 06/M11 A3015 RMK A01 T00551113  RH  029%=      5-min Rain = 0
KREE 130110Z 11010KT 05/M12 A3016 RMK A01 T00531115  RH  029%=      5-min Rain = 0
KREE 130115Z 11009KT 05/M12 A3016 RMK A01 T00501116  RH  029%=      5-min Rain = 0
KREE 130120Z 11011KT 05/M12 A3017 RMK A01 T00501118  RH  029%=      5-min Rain = 0
KREE 130125Z 11009KT 05/M12 A3017 RMK A01 T00501119  RH  029%=      5-min Rain = 0
KREE 130130Z 12011KT 05/M12 A3018 RMK A01 T00501119  RH  029%=      5-min Rain = 0
KREE 130135Z 11010KT 05/M12 A3018 RMK A01 T00501120  RH  028%=      5-min Rain = 0
KREE 130140Z 12012KT 05/M12 A3018 RMK A01 T00501120  RH  028%=      5-min Rain = 0
KREE 130145Z 13010KT 05/M12 A3018 RMK A01 T00511119  RH  028%=      5-min Rain = 0
KREE 130150Z 12012KT 05/M12 A3018 RMK A01 T00501119  RH  029%=      5-min Rain = 0
KREE 130155Z 11011KT 05/M12 A3019 RMK A01 T00481120  RH  029%=      5-min Rain = 0
KREE 130200Z 10013G18KT 05/M13 A302 RMK A01 T00451125  RH  028%=      5-min Rain = 0
KREE 130205Z 10016G21KT 04/M13 A3021 RMK A01 T00431126  RH  029%=      5-min Rain = 0
KREE 130210Z 10014KT 04/M12 A3021 RMK A01 T00371124  RH  030%=      5-min Rain = 0
KREE 130215Z 10014KT 03/M12 A3021 RMK A01 T00331123  RH  031%=      5-min Rain = 0
KREE 130220Z 10014KT 03/M12 A3021 RMK A01 T00321124  RH  031%=      5-min Rain = 0
KREE 130225Z 10013KT 03/M12 A3022 RMK A01 T00311124  RH  032%=      5-min Rain = 0
KREE 130230Z 10014KT 03/M13 A3023 RMK A01 T00311125  RH  031%=      5-min Rain = 0
KREE 130235Z 10016KT 03/M13 A3024 RMK A01 T00311127  RH  031%=      5-min Rain = 0
KREE 130240Z 10014G19KT 03/M13 A3025 RMK A01 T00301127  RH  031%=      5-min Rain = 0
KREE 130245Z 09014G20KT 03/M13 A3026 RMK A01 T00281125  RH  032%=      5-min Rain = 0
KREE 130250Z 09014KT 03/M13 A3026 RMK A01 T00281126  RH  032%=      5-min Rain = 0
KREE 130255Z 09015KT 03/M13 A3026 RMK A01 T00261127  RH  032%=      5-min Rain = 0
KREE 130300Z 09012G17KT 03/M13 A3027 RMK A01 T00251126  RH  032%=      5-min Rain = 0
KREE 130305Z 08013KT 02/M13 A3028 RMK A01 T00231127  RH  032%=      5-min Rain = 0
KREE 130310Z 08014G20KT 02/M13 A3029 RMK A01 T00231129  RH  032%=      5-min Rain = 0
KREE 130315Z 08012KT 02/M13 A3029 RMK A01 T00221129  RH  032%=      5-min Rain = 0
KREE 130320Z 08013KT 02/M13 A3029 RMK A01 T00211129  RH  032%=      5-min Rain = 0
KREE 130325Z 08015KT 02/M13 A303 RMK A01 T00201130  RH  032%=      5-min Rain = 0
KREE 130330Z 09013KT 02/M13 A303 RMK A01 T00191131  RH  033%=      5-min Rain = 0
KREE 130335Z 08013KT 02/M13 A3031 RMK A01 T00171130  RH  033%=      5-min Rain = 0
KREE 130340Z 08014KT 02/M13 A3031 RMK A01 T00151130  RH  033%=      5-min Rain = 0
KREE 130345Z 08013G18KT 01/M13 A3032 RMK A01 T00141130  RH  034%=      5-min Rain = 0
KREE 130350Z 08014KT 01/M13 A3032 RMK A01 T00111130  RH  035%=      5-min Rain = 0
KREE 130355Z 08013KT 01/M13 A3032 RMK A01 T00091130  RH  035%=      5-min Rain = 0
KREE 130400Z 09011G16KT 01/M13 A3032 RMK A01 T00071130  RH  036%=      5-min Rain = 0
KREE 130405Z 09011KT 00/M13 A3032 RMK A01 T00041130  RH  036%=      5-min Rain = 0
KREE 130410Z 08008KT 00/M13 A3033 RMK A01 T00021129  RH  037%=      5-min Rain = 0
KREE 130415Z 09010KT 00/M13 A3033 RMK A01 T00011128  RH  038%=      5-min Rain = 0
KREE 130420Z 07010KT 00/M13 A3034 RMK A01 T00011128  RH  038%=      5-min Rain = 0
KREE 130425Z 08008KT 00/M13 A3034 RMK A01 T00011128  RH  038%=      5-min Rain = 0
KREE 130430Z 07009KT 00/13 A3034 RMK A01 T00000-128  RH  038%=      5-min Rain = 0
KREE 130435Z 08009KT 00/M13 A3034 RMK A01 T00011128  RH  038%=      5-min Rain = 0
KREE 130440Z 08009KT 00/M13 A3035 RMK A01 T00011128  RH  038%=      5-min Rain = 0
KREE 130445Z 07009KT 00/M13 A3036 RMK A01 T00011128  RH  038%=      5-min Rain = 0
KREE 130450Z 08010KT 00/M13 A3035 RMK A01 T00011128  RH  038%=      5-min Rain = 0
KREE 130455Z 08010KT 00/M13 A3036 RMK A01 T00011128  RH  038%=      5-min Rain = 0
KREE 130500Z 08010KT 00/13 A3036 RMK A01 T00000-128  RH  038%=      5-min Rain = 0
KREE 130505Z 07010KT 00/M13 A3037 RMK A01 T00011129  RH  038%=      5-min Rain = 0
KREE 130510Z 08009KT 00/13 A3037 RMK A01 T00000-129  RH  038%=      5-min Rain = 0
KREE 130515Z 07009KT M00/M13 A3038 RMK A01 T10011129  RH  038%=      5-min Rain = 0
KREE 130520Z 07009KT M00/M13 A3038 RMK A01 T10021130  RH  038%=      5-min Rain = 0
KREE 130525Z 08008KT M00/M13 A3038 RMK A01 T10031129  RH  038%=      5-min Rain = 0
KREE 130530Z 08009KT M00/M13 A3038 RMK A01 T10041129  RH  039%=      5-min Rain = 0
KREE 130535Z 08009KT M00/M13 A3038 RMK A01 T10041129  RH  039%=      5-min Rain = 0
KREE 130540Z 08008KT M01/M13 A3038 RMK A01 T10051129  RH  039%=      5-min Rain = 0
KREE 130545Z 07008KT M01/M13 A3039 RMK A01 T10061129  RH  039%=      5-min Rain = 0
KREE 130550Z 07008KT M01/M13 A3039 RMK A01 T10071129  RH  040%=      5-min Rain = 0
KREE 130555Z 06007KT M01/M13 A3039 RMK A01 T10071129  RH  040%=      5-min Rain = 0

Page generated in 0.0114 seconds.